Wenden, Arizona
Current Conditions -  °F | °C
As of 9:55 AM on Tuesday 21 Oct 2014 (Local Time) from KBXK Reporting Station
Clear Clear  
Wind Chill: 27°   Ceiling: Unl
Heat Index: 27°   Visibility: 10mi
Dew Point: 10°   Wind: 14mph
Humidity: 34%   Direction: 100°E
Pressure: 29.9"   Gusts: 21mph
Location:  33.82°N, 113.54°W
Report Text: KBXK 211655Z AUTO 10012G18KT 10SM CLR 27/10 A2990 RMK AO1
Loading
Personal Weather Stations






























Interactive Weather Map
Tropical Storm Tracking
New forecast layout! Learn more

10-Day Weather Forecast

Advertisements
Track Severe Weather on mobile